createdAt,value
2019-06-20T00:01:32.870Z,93.40
2019-06-20T00:04:03.052Z,93.40
2019-06-20T00:06:33.139Z,93.30
2019-06-20T00:09:03.351Z,93.30
2019-06-20T00:11:33.513Z,93.30
2019-06-20T00:14:03.671Z,93.50
2019-06-20T00:16:33.754Z,93.40
2019-06-20T00:19:03.983Z,93.40
2019-06-20T00:21:34.035Z,93.70
2019-06-20T00:24:04.214Z,93.70
2019-06-20T00:26:34.320Z,93.90
2019-06-20T00:29:04.447Z,93.60
2019-06-20T00:31:34.457Z,93.80
2019-06-20T00:34:04.579Z,93.70
2019-06-20T00:36:34.727Z,93.70
2019-06-20T00:39:06.838Z,93.80
2019-06-20T00:41:37.058Z,94.10
2019-06-20T00:44:07.197Z,94.00
2019-06-20T00:46:37.352Z,94.00
2019-06-20T00:49:07.655Z,94.10
2019-06-20T00:51:37.670Z,94.10
2019-06-20T00:54:07.820Z,94.00
2019-06-20T00:56:37.989Z,93.90
2019-06-20T00:59:08.200Z,94.10
2019-06-20T01:01:38.272Z,94.40
2019-06-20T01:04:08.341Z,94.50
2019-06-20T01:06:38.432Z,94.80
2019-06-20T01:09:09.703Z,94.40
2019-06-20T01:11:39.883Z,94.40
2019-06-20T01:14:10.042Z,94.40
2019-06-20T01:16:40.209Z,94.30
2019-06-20T01:19:10.403Z,94.50
2019-06-20T01:21:40.565Z,94.40
2019-06-20T01:24:10.808Z,94.50
2019-06-20T01:26:40.968Z,94.70
2019-06-20T01:29:11.162Z,94.80
2019-06-20T01:31:41.325Z,94.60
2019-06-20T01:34:11.977Z,94.80
2019-06-20T01:36:42.069Z,94.70
2019-06-20T01:39:12.146Z,94.50
2019-06-20T01:41:42.253Z,94.70
2019-06-20T01:44:12.323Z,94.70
2019-06-20T01:46:42.348Z,94.90
2019-06-20T01:49:12.546Z,94.90
2019-06-20T01:51:42.619Z,95.30
2019-06-20T01:54:12.649Z,95.50
2019-06-20T01:56:42.677Z,95.20
2019-06-20T01:59:12.850Z,95.40
2019-06-20T02:01:43.038Z,95.50
2019-06-20T02:04:13.193Z,95.40
2019-06-20T02:06:43.328Z,95.50
2019-06-20T02:09:13.428Z,95.60
2019-06-20T02:11:43.542Z,95.70
2019-06-20T02:14:14.165Z,95.80
2019-06-20T02:16:44.270Z,96.20
2019-06-20T02:19:14.472Z,96.30
2019-06-20T02:21:44.648Z,96.10
2019-06-20T02:24:14.758Z,96.30
2019-06-20T02:26:44.892Z,96.30
2019-06-20T02:29:15.061Z,96.10
2019-06-20T02:31:45.150Z,96.20
2019-06-20T02:34:15.321Z,96.20
2019-06-20T02:36:45.469Z,96.40
2019-06-20T02:39:15.565Z,96.30
2019-06-20T02:41:45.689Z,96.20
2019-06-20T02:44:29.010Z,96.20
2019-06-20T02:46:47.729Z,96.50
2019-06-20T02:49:17.780Z,96.60
2019-06-20T02:51:48.417Z,96.80
2019-06-20T02:54:18.512Z,96.70
2019-06-20T02:56:48.698Z,96.80
2019-06-20T02:59:18.864Z,96.90
2019-06-20T03:01:49.032Z,96.80
2019-06-20T03:04:18.964Z,96.80
2019-06-20T03:06:49.185Z,96.90
2019-06-20T03:09:19.329Z,97.00
2019-06-20T03:11:49.559Z,97.00
2019-06-20T03:14:19.643Z,97.10
2019-06-20T03:16:49.853Z,96.90
2019-06-20T03:19:20.006Z,97.20
2019-06-20T03:21:49.937Z,97.00
2019-06-20T03:24:20.124Z,97.10
2019-06-20T03:26:50.165Z,97.10
2019-06-20T03:29:20.357Z,97.20
2019-06-20T03:31:50.540Z,97.00
2019-06-20T03:34:20.636Z,97.20
2019-06-20T03:36:50.817Z,97.20
2019-06-20T03:39:20.951Z,97.30
2019-06-20T03:41:50.965Z,97.40
2019-06-20T03:44:21.077Z,97.50
2019-06-20T03:46:51.143Z,97.60
2019-06-20T03:49:21.238Z,97.70
2019-06-20T03:51:51.807Z,97.50
2019-06-20T03:54:21.913Z,97.90
2019-06-20T03:56:51.850Z,97.70
2019-06-20T03:59:21.937Z,97.90
2019-06-20T04:01:51.950Z,97.70
2019-06-20T04:04:21.964Z,97.90
2019-06-20T04:06:51.925Z,98.00
2019-06-20T04:09:21.856Z,97.80
2019-06-20T04:11:51.801Z,97.90
2019-06-20T04:14:21.912Z,98.00
2019-06-20T04:16:51.994Z,98.00
2019-06-20T04:19:21.947Z,98.10
2019-06-20T04:21:52.205Z,98.00
2019-06-20T04:24:22.393Z,98.00
2019-06-20T04:26:52.623Z,98.10
2019-06-20T04:29:22.772Z,98.30
2019-06-20T04:31:52.975Z,98.30
2019-06-20T04:34:23.048Z,98.20
2019-06-20T04:36:53.174Z,98.20
2019-06-20T04:39:23.176Z,98.20
2019-06-20T04:41:53.388Z,98.30
2019-06-20T04:44:23.490Z,98.40
2019-06-20T04:47:07.987Z,98.30
2019-06-20T04:49:38.059Z,98.40
2019-06-20T04:52:08.166Z,98.80
2019-06-20T04:54:38.776Z,98.40
2019-06-20T04:57:08.903Z,98.40
2019-06-20T04:59:39.020Z,98.40
2019-06-20T05:02:09.148Z,98.40
2019-06-20T05:04:39.227Z,98.50
2019-06-20T05:07:18.955Z,98.50
2019-06-20T05:09:49.040Z,98.50
2019-06-20T05:12:19.079Z,98.60
2019-06-20T05:14:49.179Z,98.40
2019-06-20T05:17:19.209Z,98.60
2019-06-20T05:19:49.304Z,98.40
2019-06-20T05:22:19.508Z,98.50
2019-06-20T05:24:49.470Z,98.50
2019-06-20T05:27:19.612Z,98.40
2019-06-20T05:29:49.701Z,98.50
2019-06-20T05:32:19.797Z,98.50
2019-06-20T05:34:49.824Z,98.70
2019-06-20T05:37:19.970Z,98.90
2019-06-20T05:39:50.067Z,99.10
2019-06-20T05:42:20.173Z,98.80
2019-06-20T05:44:50.260Z,98.80
2019-06-20T05:47:20.441Z,99.00
2019-06-20T05:49:50.575Z,99.00
2019-06-20T05:52:20.735Z,98.60
2019-06-20T05:54:50.825Z,98.80
2019-06-20T05:57:20.860Z,98.50
2019-06-20T05:59:50.935Z,98.60
2019-06-20T06:02:21.016Z,98.50
2019-06-20T06:04:50.954Z,98.70
2019-06-20T06:07:21.073Z,98.80
2019-06-20T06:09:51.218Z,98.70
2019-06-20T06:12:21.197Z,99.00
2019-06-20T06:14:51.196Z,98.60
2019-06-20T06:17:21.362Z,98.40
2019-06-20T06:19:51.521Z,98.30
2019-06-20T06:22:21.495Z,98.30
2019-06-20T06:24:51.592Z,98.30
2019-06-20T06:27:21.793Z,98.10
2019-06-20T06:29:52.043Z,97.90
2019-06-20T06:32:22.073Z,97.80
2019-06-20T06:34:52.091Z,97.70
2019-06-20T06:37:22.257Z,97.60
2019-06-20T06:39:52.287Z,97.40
2019-06-20T06:42:22.815Z,97.30
2019-06-20T06:44:53.411Z,97.30
2019-06-20T06:47:24.032Z,97.30
2019-06-20T06:49:54.115Z,97.30
2019-06-20T06:52:24.111Z,97.40
2019-06-20T06:54:54.207Z,97.50
2019-06-20T06:57:24.219Z,97.50
2019-06-20T06:59:54.282Z,97.50
2019-06-20T07:02:24.565Z,97.50
2019-06-20T07:04:54.604Z,97.50
2019-06-20T07:07:24.691Z,97.50
2019-06-20T07:09:54.804Z,97.40
2019-06-20T07:12:24.936Z,97.50
2019-06-20T07:14:54.937Z,97.50
2019-06-20T07:17:25.707Z,97.30
2019-06-20T07:19:55.812Z,97.10
2019-06-20T07:22:25.840Z,97.10
2019-06-20T07:24:55.948Z,97.60
2019-06-20T07:27:25.963Z,97.20
2019-06-20T07:29:56.075Z,97.20
2019-06-20T07:32:26.132Z,97.10
2019-06-20T07:34:56.370Z,97.20
2019-06-20T07:37:26.542Z,97.20
2019-06-20T07:39:56.642Z,97.20
2019-06-20T07:42:26.682Z,97.20
2019-06-20T07:44:56.768Z,97.10
2019-06-20T07:47:27.016Z,97.00
2019-06-20T07:49:57.070Z,97.00
2019-06-20T07:52:27.301Z,96.90
2019-06-20T07:54:57.343Z,96.80
2019-06-20T07:57:27.606Z,96.90
2019-06-20T07:59:57.699Z,96.90
2019-06-20T08:02:27.823Z,96.90
2019-06-20T08:04:57.856Z,96.90
2019-06-20T08:07:28.143Z,96.80
2019-06-20T08:09:59.386Z,96.60
2019-06-20T08:12:29.625Z,96.60
2019-06-20T08:15:13.967Z,96.50
2019-06-20T08:17:35.686Z,96.70
2019-06-20T08:20:03.688Z,96.50
2019-06-20T08:22:34.044Z,96.40
2019-06-20T08:25:05.405Z,96.50
2019-06-20T08:27:51.445Z,96.50
2019-06-20T08:30:24.832Z,96.50
2019-06-20T08:32:57.403Z,96.40
2019-06-20T08:35:30.359Z,96.30
2019-06-20T08:38:03.067Z,96.10
2019-06-20T08:40:39.873Z,96.00
2019-06-20T08:43:11.338Z,95.90
2019-06-20T08:45:43.855Z,96.00
2019-06-20T08:48:14.043Z,96.00
2019-06-20T08:50:45.407Z,96.00
2019-06-20T08:53:15.665Z,95.80
2019-06-20T08:55:45.884Z,95.50
2019-06-20T08:58:16.121Z,95.40
2019-06-20T09:00:46.353Z,95.40
2019-06-20T09:03:16.585Z,95.50
2019-06-20T09:05:46.792Z,95.50
2019-06-20T09:08:17.065Z,95.50
2019-06-20T09:10:47.266Z,95.50
2019-06-20T09:13:17.318Z,95.50
2019-06-20T09:15:47.601Z,95.30
2019-06-20T09:18:18.109Z,94.90
2019-06-20T09:20:48.262Z,94.60
2019-06-20T09:23:18.542Z,94.40
2019-06-20T09:25:48.959Z,94.60
2019-06-20T09:28:19.146Z,94.60
2019-06-20T09:30:50.475Z,94.30
2019-06-20T09:33:21.045Z,93.60
2019-06-20T09:35:52.692Z,92.80
2019-06-20T09:38:23.801Z,92.30
2019-06-20T09:40:54.865Z,91.80
2019-06-20T09:43:27.765Z,91.30
2019-06-20T09:45:58.391Z,91.40
2019-06-20T09:48:28.420Z,91.30
2019-06-20T09:50:58.696Z,91.30
2019-06-20T09:53:28.750Z,91.10
2019-06-20T09:55:58.761Z,90.60
2019-06-20T09:58:28.818Z,90.30
2019-06-20T10:00:59.333Z,90.30
2019-06-20T10:03:29.272Z,89.80
2019-06-20T10:05:59.369Z,89.90
2019-06-20T10:08:29.494Z,89.30
2019-06-20T10:10:59.601Z,89.20
2019-06-20T10:13:32.820Z,89.60
2019-06-20T10:16:02.975Z,89.40
2019-06-20T10:18:33.193Z,88.60
2019-06-20T10:21:03.286Z,89.10
2019-06-20T10:23:33.428Z,89.10
2019-06-20T10:26:03.954Z,88.60
2019-06-20T10:28:34.095Z,88.60
2019-06-20T10:31:04.244Z,88.40
2019-06-20T10:33:34.324Z,86.50
2019-06-20T10:36:04.703Z,86.60
2019-06-20T10:38:34.890Z,86.50
2019-06-20T10:41:05.039Z,87.00
2019-06-20T10:43:35.238Z,86.90
2019-06-20T10:46:05.565Z,86.90
2019-06-20T10:48:35.730Z,86.70
2019-06-20T10:51:23.561Z,87.00
2019-06-20T10:53:53.760Z,86.90
2019-06-20T10:56:23.982Z,87.00
2019-06-20T10:58:54.063Z,87.20
2019-06-20T11:01:24.216Z,86.40
2019-06-20T11:03:54.462Z,86.60
2019-06-20T11:06:24.645Z,85.90
2019-06-20T11:08:54.720Z,85.20
2019-06-20T11:11:24.974Z,84.40
2019-06-20T11:13:55.090Z,83.90
2019-06-20T11:16:26.336Z,83.20
2019-06-20T11:18:56.730Z,82.50
2019-06-20T11:21:27.167Z,82.30
2019-06-20T11:23:57.513Z,81.80
2019-06-20T11:26:27.778Z,81.90
2019-06-20T11:28:58.983Z,81.80
2019-06-20T11:31:29.102Z,80.80
2019-06-20T11:33:59.150Z,80.00
2019-06-20T11:36:29.262Z,77.80
2019-06-20T11:38:59.280Z,76.30
2019-06-20T11:41:29.539Z,75.10
2019-06-20T11:43:59.711Z,74.60
2019-06-20T11:46:29.882Z,74.50
2019-06-20T11:48:59.893Z,74.10
2019-06-20T11:51:30.010Z,74.00
2019-06-20T11:54:00.160Z,74.10
2019-06-20T11:56:30.275Z,73.90
2019-06-20T11:59:00.452Z,72.50
2019-06-20T12:01:33.177Z,72.80
2019-06-20T12:04:02.441Z,73.10
2019-06-20T12:06:32.558Z,72.90
2019-06-20T12:09:02.844Z,73.00
2019-06-20T12:11:33.076Z,73.00
2019-06-20T12:14:03.156Z,72.90
2019-06-20T12:16:33.327Z,72.30
2019-06-20T12:19:03.405Z,72.10
2019-06-20T12:21:33.490Z,72.40
2019-06-20T12:24:03.557Z,71.90
2019-06-20T12:26:33.723Z,71.40
2019-06-20T12:29:03.936Z,70.90
2019-06-20T12:31:34.145Z,70.90
2019-06-20T12:34:04.397Z,70.20
2019-06-20T12:36:34.621Z,70.70
2019-06-20T12:39:06.744Z,70.50
2019-06-20T12:41:36.891Z,70.40
2019-06-20T12:44:07.057Z,70.40
2019-06-20T12:46:39.367Z,70.80
2019-06-20T12:49:08.964Z,70.10
2019-06-20T12:51:40.379Z,70.00
2019-06-20T12:54:10.604Z,70.00
2019-06-20T12:56:41.898Z,70.00
2019-06-20T12:59:11.960Z,69.70
2019-06-20T13:01:45.706Z,70.00
2019-06-20T13:04:14.040Z,69.20
2019-06-20T13:06:44.442Z,69.30
2019-06-20T13:09:14.452Z,69.90
2019-06-20T13:11:44.870Z,70.10
2019-06-20T13:14:15.031Z,70.20
2019-06-20T13:16:46.034Z,69.60
2019-06-20T13:19:16.215Z,68.90
2019-06-20T13:21:46.572Z,69.20
2019-06-20T13:24:16.633Z,69.40
2019-06-20T13:26:48.896Z,69.30
2019-06-20T13:29:18.718Z,68.80
2019-06-20T13:32:01.921Z,68.90
2019-06-20T13:34:20.701Z,68.60
2019-06-20T13:36:50.963Z,68.60
2019-06-20T13:39:21.255Z,68.20
2019-06-20T13:41:51.485Z,68.00
2019-06-20T13:44:21.870Z,68.00
2019-06-20T13:46:52.127Z,67.90
2019-06-20T13:49:22.232Z,67.60
2019-06-20T13:51:52.357Z,67.70
2019-06-20T13:54:23.406Z,67.30
2019-06-20T13:56:53.997Z,67.40
2019-06-20T13:59:24.312Z,67.40
2019-06-20T14:02:06.136Z,67.50
2019-06-20T14:04:26.379Z,67.70
2019-06-20T14:06:56.873Z,68.00
2019-06-20T14:09:27.007Z,68.00
2019-06-20T14:11:57.212Z,68.10
2019-06-20T14:14:27.469Z,68.20
2019-06-20T14:16:57.639Z,68.40
2019-06-20T14:19:27.573Z,68.70
2019-06-20T14:21:57.584Z,68.60
2019-06-20T14:24:27.608Z,68.80
2019-06-20T14:26:58.466Z,68.80
2019-06-20T14:29:28.649Z,68.90
2019-06-20T14:31:58.743Z,68.80
2019-06-20T14:34:28.915Z,69.00
2019-06-20T14:36:59.070Z,68.70
2019-06-20T14:39:29.244Z,68.40
2019-06-20T14:41:59.373Z,68.10
2019-06-20T14:44:29.458Z,68.10
2019-06-20T14:46:59.547Z,67.90
2019-06-20T14:49:29.672Z,67.90
2019-06-20T14:51:59.863Z,68.00
2019-06-20T14:54:30.100Z,68.10
2019-06-20T14:57:00.190Z,68.40
2019-06-20T14:59:30.213Z,68.40
2019-06-20T15:02:00.183Z,68.20
2019-06-20T15:04:30.182Z,68.50
2019-06-20T15:07:00.309Z,68.20
2019-06-20T15:09:30.279Z,68.20
2019-06-20T15:12:00.415Z,68.00
2019-06-20T15:14:30.356Z,68.20
2019-06-20T15:17:00.380Z,68.30
2019-06-20T15:19:30.414Z,67.70
2019-06-20T15:22:00.475Z,67.60
2019-06-20T15:24:30.945Z,67.20
2019-06-20T15:27:01.033Z,67.40
2019-06-20T15:29:31.085Z,67.50
2019-06-20T15:32:01.183Z,67.30
2019-06-20T15:34:32.111Z,66.80
2019-06-20T15:37:06.176Z,66.60
2019-06-20T15:39:33.986Z,66.70
2019-06-20T15:42:04.155Z,66.70
2019-06-20T15:44:34.340Z,66.60
2019-06-20T15:47:04.549Z,66.40
2019-06-20T15:49:34.561Z,65.80
2019-06-20T15:52:04.809Z,65.90
2019-06-20T15:54:34.891Z,65.90
2019-06-20T15:57:05.092Z,66.10
2019-06-20T15:59:35.119Z,66.30
2019-06-20T16:02:05.325Z,66.40
2019-06-20T16:04:35.405Z,66.30
2019-06-20T16:07:05.516Z,66.70
2019-06-20T16:09:35.798Z,66.70
2019-06-20T16:12:05.948Z,66.60
2019-06-20T16:14:35.931Z,66.70
2019-06-20T16:17:06.085Z,66.70
2019-06-20T16:19:36.060Z,65.90
2019-06-20T16:22:06.472Z,65.80
2019-06-20T16:24:36.806Z,66.00
2019-06-20T16:27:06.886Z,65.80
2019-06-20T16:29:36.820Z,65.80
2019-06-20T16:32:06.973Z,65.80
2019-06-20T16:34:39.395Z,65.90
2019-06-20T16:37:10.540Z,66.30
2019-06-20T16:39:40.902Z,66.60
2019-06-20T16:42:11.048Z,66.70
2019-06-20T16:44:41.178Z,66.80
2019-06-20T16:47:11.250Z,67.00
2019-06-20T16:49:41.316Z,67.30
2019-06-20T16:52:11.724Z,67.50
2019-06-20T16:54:41.854Z,67.70
2019-06-20T16:57:11.922Z,68.10
2019-06-20T16:59:41.886Z,68.60
2019-06-20T17:02:11.945Z,70.00
2019-06-20T17:04:41.890Z,70.00
2019-06-20T17:07:11.924Z,70.30
2019-06-20T17:09:42.138Z,70.90
2019-06-20T17:12:12.305Z,71.60
2019-06-20T17:14:42.425Z,72.10
2019-06-20T17:17:12.564Z,72.30
2019-06-20T17:19:42.733Z,72.50
2019-06-20T17:22:12.881Z,72.30
2019-06-20T17:24:42.976Z,72.50
2019-06-20T17:27:13.004Z,72.40
2019-06-20T17:29:43.162Z,72.50
2019-06-20T17:32:14.577Z,72.30
2019-06-20T17:34:44.738Z,72.50
2019-06-20T17:37:14.741Z,72.50
2019-06-20T17:39:44.906Z,72.60
2019-06-20T17:42:15.040Z,72.70
2019-06-20T17:44:45.153Z,72.80
2019-06-20T17:47:15.312Z,72.60
2019-06-20T17:49:45.634Z,72.40
2019-06-20T17:52:15.806Z,72.40
2019-06-20T17:54:45.757Z,72.40
2019-06-20T17:57:15.975Z,72.40
2019-06-20T17:59:45.948Z,72.50
2019-06-20T18:02:16.036Z,72.40
2019-06-20T18:04:46.126Z,72.40
2019-06-20T18:07:16.309Z,72.20
2019-06-20T18:09:46.457Z,72.30
2019-06-20T18:12:16.586Z,72.50
2019-06-20T18:14:46.600Z,72.50
2019-06-20T18:17:16.715Z,72.60
2019-06-20T18:19:46.811Z,72.80
2019-06-20T18:22:16.879Z,73.00
2019-06-20T18:24:47.067Z,73.00
2019-06-20T18:27:17.135Z,73.60
2019-06-20T18:29:47.164Z,74.50
2019-06-20T18:32:17.264Z,74.40
2019-06-20T18:35:00.956Z,74.30
2019-06-20T18:37:31.072Z,74.30
2019-06-20T18:39:51.289Z,74.50
2019-06-20T18:42:21.932Z,74.70
2019-06-20T18:44:52.051Z,75.00
2019-06-20T18:47:22.182Z,75.10
2019-06-20T18:49:52.339Z,75.30
2019-06-20T18:52:22.488Z,75.50
2019-06-20T18:54:52.581Z,75.60
2019-06-20T18:57:22.734Z,75.70
2019-06-20T18:59:52.820Z,76.00
2019-06-20T19:02:22.898Z,75.80
2019-06-20T19:04:53.016Z,75.90
2019-06-20T19:07:23.033Z,75.90
2019-06-20T19:09:53.120Z,76.20
2019-06-20T19:12:23.097Z,76.40
2019-06-20T19:14:53.281Z,76.60
2019-06-20T19:17:23.387Z,76.60
2019-06-20T19:19:53.515Z,76.80
2019-06-20T19:22:23.546Z,76.90
2019-06-20T19:24:53.699Z,77.00
2019-06-20T19:27:24.272Z,77.30
2019-06-20T19:29:54.270Z,77.20
2019-06-20T19:32:24.369Z,77.10
2019-06-20T19:35:02.308Z,77.30
2019-06-20T19:37:26.190Z,77.30
2019-06-20T19:39:56.292Z,77.30
2019-06-20T19:42:26.397Z,77.30
2019-06-20T19:44:58.032Z,77.40
2019-06-20T19:47:28.227Z,77.60
2019-06-20T19:49:58.444Z,78.20
2019-06-20T19:52:28.634Z,77.90
2019-06-20T19:54:58.783Z,78.00
2019-06-20T19:57:29.029Z,78.40
2019-06-20T19:59:59.279Z,78.70
2019-06-20T20:02:29.599Z,78.70
2019-06-20T20:04:59.746Z,78.80
2019-06-20T20:07:29.910Z,78.80
2019-06-20T20:10:00.049Z,78.90
2019-06-20T20:12:30.194Z,79.00
2019-06-20T20:15:00.158Z,79.10
2019-06-20T20:17:30.161Z,79.30
2019-06-20T20:20:00.324Z,79.40
2019-06-20T20:22:30.295Z,79.40
2019-06-20T20:25:00.448Z,79.50
2019-06-20T20:27:30.470Z,79.80
2019-06-20T20:30:00.419Z,80.10
2019-06-20T20:32:30.412Z,80.50
2019-06-20T20:35:00.456Z,80.70
2019-06-20T20:37:30.661Z,81.00
2019-06-20T20:40:00.684Z,81.30
2019-06-20T20:42:30.788Z,81.50
2019-06-20T20:45:00.754Z,81.80
2019-06-20T20:47:30.757Z,82.30
2019-06-20T20:50:01.357Z,82.40
2019-06-20T20:52:31.924Z,82.50
2019-06-20T20:55:01.949Z,82.70
2019-06-20T20:57:32.115Z,83.00
2019-06-20T21:00:02.327Z,83.30
2019-06-20T21:02:32.420Z,83.70
2019-06-20T21:05:02.457Z,83.80
2019-06-20T21:07:32.564Z,84.10
2019-06-20T21:10:02.766Z,84.30
2019-06-20T21:12:32.733Z,84.40
2019-06-20T21:15:02.897Z,84.60
2019-06-20T21:17:32.976Z,84.80
2019-06-20T21:20:03.375Z,84.80
2019-06-20T21:22:33.556Z,85.00
2019-06-20T21:25:03.746Z,85.20
2019-06-20T21:27:33.755Z,85.40
2019-06-20T21:30:04.978Z,85.60
2019-06-20T21:32:35.124Z,86.00
2019-06-20T21:35:06.099Z,86.20
2019-06-20T21:37:36.101Z,86.50
2019-06-20T21:40:07.059Z,86.50
2019-06-20T21:42:37.146Z,86.70
2019-06-20T21:45:08.312Z,87.00
2019-06-20T21:47:38.318Z,87.10
2019-06-20T21:50:09.893Z,87.80
2019-06-20T21:52:40.133Z,87.80
2019-06-20T21:55:10.489Z,88.00
2019-06-20T21:57:40.555Z,88.30
2019-06-20T22:00:16.160Z,88.30
2019-06-20T22:02:46.262Z,88.70
2019-06-20T22:05:16.708Z,88.70
2019-06-20T22:07:46.779Z,89.00
2019-06-20T22:10:17.070Z,89.20
2019-06-20T22:12:47.144Z,89.40
2019-06-20T22:15:17.612Z,89.60
2019-06-20T22:17:47.840Z,90.00
2019-06-20T22:20:18.826Z,90.00
2019-06-20T22:22:48.950Z,90.10
2019-06-20T22:25:19.715Z,90.20
2019-06-20T22:27:49.904Z,90.30
2019-06-20T22:30:33.236Z,90.30
2019-06-20T22:33:03.379Z,90.40
2019-06-20T22:35:33.490Z,90.50
2019-06-20T22:38:03.759Z,90.50
2019-06-20T22:40:33.739Z,90.60
2019-06-20T22:43:03.962Z,90.60
2019-06-20T22:45:34.178Z,90.70
2019-06-20T22:48:04.353Z,90.80
2019-06-20T22:50:34.512Z,90.80
2019-06-20T22:53:04.732Z,90.90
2019-06-20T22:55:34.947Z,90.90
2019-06-20T22:58:05.432Z,90.90
2019-06-20T23:00:36.833Z,91.00
2019-06-20T23:03:07.495Z,91.10
2019-06-20T23:05:37.575Z,91.00
2019-06-20T23:08:07.714Z,91.00
2019-06-20T23:10:37.960Z,91.10
2019-06-20T23:13:08.065Z,91.20
2019-06-20T23:15:38.231Z,91.20
2019-06-20T23:18:08.423Z,91.20
2019-06-20T23:20:38.441Z,91.40
2019-06-20T23:23:08.532Z,91.40
2019-06-20T23:25:40.688Z,91.50
2019-06-20T23:28:10.760Z,91.60
2019-06-20T23:30:40.990Z,91.70
2019-06-20T23:33:10.916Z,91.80
2019-06-20T23:35:40.952Z,91.90
2019-06-20T23:38:11.214Z,91.90
2019-06-20T23:40:41.480Z,92.00
2019-06-20T23:43:11.583Z,92.00
2019-06-20T23:45:41.688Z,92.10
2019-06-20T23:48:11.761Z,92.10
2019-06-20T23:50:42.022Z,92.20
2019-06-20T23:53:18.163Z,92.20
2019-06-20T23:55:48.345Z,92.40
2019-06-20T23:58:18.451Z,92.40
